Almont, Colorado
Current Conditions -  °F | °C
As of 11:55 AM on Monday 20 Oct 2014 (Local Time) from KGUC Reporting Station
Clear Clear  
Wind Chill: 55°   Ceiling: Unl
Heat Index: 55°   Visibility: 10mi
Dew Point: 34°   Wind: 0mph
Humidity: 44%   Direction: NA
Pressure: 30.32"   Gusts: NA
Location:  38.66°N, 106.85°W
Report Text: KGUC 201755Z AUTO 00000KT 10SM CLR 13/01 A3032 RMK AO1 10130 21010 57020
Loading
Personal Weather Stations






























Interactive Weather Map
Tropical Storm Tracking
New forecast layout! Learn more

10-Day Weather Forecast

Advertisements
Track Severe Weather on mobile